aviador You're here:

KGAD Decoded Metar

GADSDEN MUNI in AL, USA
Report Time2017-09-23 19:56:00
UTC Time2017-09-23 20:11:08
Flight Rules vfr VFR
Wind110° at 05 kt
W.Decomp.*RWY 06: 3.0 kt HW 4.0 kt RCW
RWY 18: 2.0 kt HW 4.6 kt LCW
W.Rank110° ranks 35
Current wind is below 110° avg. (5.4)
Visibility9999 m
Phenomena:N/A
Clouds:Few 049 Hf
Expected CloudBase > 4,400 ft AGL from Temp-Dew spread
CeilingNone
Temp32°C (ISA +18)
Dew Point21°C (52% RH)
Heat Index34.9°C
QNH1016 hPa
Density Alt2,864 ft
Elevation568 ft
Report Wrong Elevation
Raw Report
METAR KGAD 231956Z AUTO 11005KT 8SM FEW049 32/21 A3001 RMK AO2 LTG
DSNT S SLP157 T03170206=

Extra information for KGAD:More info

Metar Taf Metar & Taf Last 4 Metars F.Rules Stats Wind Profile Meteogram Temp Stats Airport Information Weather charts Add Link Nearby VenuesMetar ALERT Operation Metar Decoded Social comments

AIRNAV info for KGAD